Time;durP1;ratioP1;P1;durP2;ratioP2;P2;SDS_P1;SDS_P2;PMS_P1;PMS_P2;Temp;Humidity;BMP_temperature;BMP_pressure;BME280_temperature;BME280_humidity;BME280_pressure;Samples;Min_cycle;Max_cycle;Signal;HPM_P1;HPM_P2
2021/05/12 00:02:13;;;;;;;2.58;0.90;;;12.50;99.90;;;;;;5055158;28;20028;-78
2021/05/12 00:04:39;;;;;;;1.35;1.00;;;12.40;99.90;;;;;;5055180;28;20027;-78
2021/05/12 00:07:05;;;;;;;1.40;0.90;;;12.40;99.90;;;;;;5055163;28;20024;-78
2021/05/12 00:09:31;;;;;;;4.05;1.10;;;12.40;99.90;;;;;;5037278;28;20434;-78
2021/05/12 00:11:56;;;;;;;1.38;0.80;;;12.50;99.90;;;;;;5055102;28;20025;-79
2021/05/12 00:14:22;;;;;;;2.65;1.10;;;12.40;99.90;;;;;;5037211;28;20048;-79
2021/05/12 00:16:48;;;;;;;0.80;0.80;;;12.40;99.90;;;;;;5054888;28;20106;-78
2021/05/12 00:19:14;;;;;;;3.05;1.00;;;12.40;99.90;;;;;;5054728;28;20396;-79
2021/05/12 00:21:45;;;;;;;2.17;0.90;;;12.40;99.90;;;;;;5054856;28;20431;-78
2021/05/12 00:24:11;;;;;;;1.10;0.70;;;12.50;99.90;;;;;;5036855;28;20025;-78
2021/05/12 00:26:38;;;;;;;1.52;1.10;;;12.40;99.90;;;;;;5036947;28;20021;-78
2021/05/12 00:29:09;;;;;;;2.97;0.88;;;12.40;99.90;;;;;;5036839;28;20048;-78
2021/05/12 00:31:35;;;;;;;3.38;1.10;;;12.30;99.90;;;;;;5054909;28;20421;-78
2021/05/12 00:34:02;;;;;;;1.60;1.00;;;12.10;99.90;;;;;;5036709;28;20031;-78
2021/05/12 00:36:28;;;;;;;1.50;0.85;;;12.10;99.90;;;;;;5054754;28;20079;-78
2021/05/12 00:38:56;;;;;;;1.40;0.85;;;12.10;99.90;;;;;;5054470;28;20025;-80
2021/05/12 00:41:22;;;;;;;1.98;0.95;;;12.10;99.90;;;;;;5054463;28;20017;-79
2021/05/12 00:43:48;;;;;;;3.60;0.98;;;12.10;99.90;;;;;;5054353;28;20380;-79
2021/05/12 00:46:14;;;;;;;1.67;0.80;;;12.10;99.90;;;;;;5036319;28;20028;-78
2021/05/12 00:48:40;;;;;;;6.10;0.95;;;12.00;99.90;;;;;;5036280;28;20041;-77
2021/05/12 00:51:06;;;;;;;2.05;0.95;;;12.00;99.90;;;;;;5054877;28;20017;-78
2021/05/12 00:53:33;;;;;;;2.55;1.02;;;12.00;99.90;;;;;;5036490;28;20057;-78
2021/05/12 00:55:59;;;;;;;3.35;0.73;;;12.00;99.90;;;;;;5054300;28;20400;-78
2021/05/12 00:58:25;;;;;;;2.28;0.93;;;12.00;99.90;;;;;;5054397;28;20460;-78
2021/05/12 01:00:51;;;;;;;1.88;0.93;;;11.90;99.90;;;;;;5036332;28;20036;-78
2021/05/12 01:03:17;;;;;;;2.53;0.88;;;12.00;99.90;;;;;;5054464;28;20056;-79
2021/05/12 01:05:49;;;;;;;1.50;0.60;;;11.90;99.90;;;;;;5036080;28;20117;-78
2021/05/12 01:08:22;;;;;;;2.05;0.98;;;11.80;99.90;;;;;;5036115;28;20024;-78
2021/05/12 01:10:48;;;;;;;3.30;0.80;;;11.90;99.90;;;;;;5036178;28;20108;-80
2021/05/12 01:13:14;;;;;;;1.70;0.77;;;11.90;99.90;;;;;;5035202;28;20063;-79
2021/05/12 01:15:44;;;;;;;1.17;0.88;;;11.90;99.90;;;;;;5053983;28;20025;-79
2021/05/12 01:18:18;;;;;;;1.40;0.65;;;12.00;99.90;;;;;;5036081;28;20027;-79
2021/05/12 01:21:00;;;;;;;;;;;11.90;99.90;;;;;;5054165;28;20102;-78
2021/05/12 01:23:29;;;;;;;3.17;0.70;;;11.80;99.90;;;;;;5053728;28;20344;-79
2021/05/12 01:25:57;;;;;;;2.15;0.52;;;11.80;99.90;;;;;;5053749;28;20017;-79
2021/05/12 01:28:26;;;;;;;1.98;0.75;;;11.80;99.90;;;;;;5035839;28;20017;-78
2021/05/12 01:30:55;;;;;;;2.00;0.70;;;11.80;99.90;;;;;;5053585;28;20025;-78
2021/05/12 01:33:20;;;;;;;7.55;0.75;;;11.90;99.90;;;;;;5035741;28;20508;-79
2021/05/12 01:35:47;;;;;;;2.17;1.00;;;11.80;99.90;;;;;;5035724;28;20036;-78
2021/05/12 01:38:12;;;;;;;1.98;0.60;;;11.80;99.90;;;;;;5053877;28;20562;-78
2021/05/12 01:40:38;;;;;;;1.35;0.70;;;11.80;99.90;;;;;;5053772;28;20025;-79
2021/05/12 01:43:04;;;;;;;2.35;0.60;;;11.80;99.90;;;;;;5053382;28;20032;-79
2021/05/12 01:45:30;;;;;;;0.70;0.70;;;11.70;99.90;;;;;;5053612;28;20388;-79
2021/05/12 01:47:55;;;;;;;2.58;0.95;;;11.70;99.90;;;;;;5035183;28;20124;-78
2021/05/12 01:50:21;;;;;;;0.90;0.73;;;11.80;99.90;;;;;;5053248;28;20025;-79
2021/05/12 01:52:47;;;;;;;0.68;0.68;;;11.80;99.90;;;;;;5035370;28;20029;-80
2021/05/12 01:55:15;;;;;;;2.13;0.70;;;11.80;99.90;;;;;;5053162;28;20032;-79
2021/05/12 01:57:44;;;;;;;3.03;0.80;;;11.80;99.90;;;;;;5053412;28;20025;-79
2021/05/12 02:00:18;;;;;;;3.38;0.80;;;11.80;99.90;;;;;;5053109;28;20078;-79
2021/05/12 02:02:43;;;;;;;3.70;1.02;;;11.90;99.90;;;;;;5035094;28;20247;-79
2021/05/12 02:05:09;;;;;;;4.70;0.93;;;11.80;99.90;;;;;;5035235;28;20125;-78
2021/05/12 02:07:35;;;;;;;3.22;1.05;;;11.70;99.90;;;;;;5053019;28;20021;-79
2021/05/12 02:10:00;;;;;;;3.30;1.15;;;11.80;99.90;;;;;;5035144;28;20025;-78
2021/05/12 02:12:26;;;;;;;4.18;1.27;;;11.70;99.90;;;;;;5053021;28;20106;-79
2021/05/12 02:14:52;;;;;;;3.05;1.08;;;11.70;99.90;;;;;;5035125;28;20387;-79
2021/05/12 02:17:17;;;;;;;1.70;0.95;;;11.70;99.90;;;;;;5053014;28;20026;-79
2021/05/12 02:19:43;;;;;;;2.25;0.90;;;11.80;99.90;;;;;;5035150;28;20025;-79
2021/05/12 02:22:09;;;;;;;3.70;1.10;;;11.90;99.90;;;;;;5035083;28;20550;-79
2021/05/12 02:24:35;;;;;;;2.33;0.90;;;11.80;99.90;;;;;;5036754;28;20025;-79
2021/05/12 02:27:00;;;;;;;2.78;1.13;;;11.80;99.90;;;;;;5056922;28;20475;-79
2021/05/12 02:29:26;;;;;;;1.42;0.98;;;11.80;99.90;;;;;;5056783;28;20146;-79
2021/05/12 02:31:52;;;;;;;4.00;1.27;;;11.80;99.90;;;;;;5038932;28;20057;-80
2021/05/12 02:34:17;;;;;;;2.65;1.40;;;11.90;99.90;;;;;;5038887;28;20427;-79
2021/05/12 02:36:43;;;;;;;4.80;1.50;;;11.90;99.90;;;;;;5038833;28;20029;-79
2021/05/12 02:39:09;;;;;;;2.65;1.45;;;11.80;99.90;;;;;;5038817;28;20021;-79
2021/05/12 02:41:34;;;;;;;5.03;1.60;;;11.70;99.90;;;;;;5038696;28;20025;-79
2021/05/12 02:44:00;;;;;;;4.88;1.45;;;11.60;99.90;;;;;;5056539;28;20484;-79
2021/05/12 02:46:26;;;;;;;4.95;1.55;;;11.50;99.90;;;;;;5056514;28;20096;-79
2021/05/12 02:48:51;;;;;;;4.00;1.50;;;11.50;99.90;;;;;;5056478;28;20045;-79
2021/05/12 02:51:18;;;;;;;3.92;1.67;;;11.50;99.90;;;;;;5056343;28;20049;-79
2021/05/12 02:53:43;;;;;;;4.68;1.60;;;11.50;99.90;;;;;;5038486;28;20033;-79
2021/05/12 02:56:09;;;;;;;4.95;1.80;;;11.50;99.90;;;;;;5056346;28;20017;-79
2021/05/12 02:58:35;;;;;;;5.90;1.77;;;11.60;99.90;;;;;;5038451;28;20025;-79
2021/05/12 03:01:01;;;;;;;4.93;1.85;;;11.60;99.90;;;;;;5038450;28;20091;-79
2021/05/12 03:03:26;;;;;;;6.07;2.08;;;11.60;99.90;;;;;;5038288;28;20448;-79
2021/05/12 03:05:52;;;;;;;4.03;2.30;;;11.50;99.90;;;;;;5056422;28;20024;-80
2021/05/12 03:08:18;;;;;;;4.80;1.92;;;11.60;99.90;;;;;;5038245;28;20029;-79
2021/05/12 03:10:43;;;;;;;6.82;2.00;;;11.70;99.90;;;;;;5056082;28;20021;-79
2021/05/12 03:13:09;;;;;;;2.92;1.88;;;11.70;99.90;;;;;;5055981;28;20048;-79
2021/05/12 03:15:37;;;;;;;6.00;2.55;;;11.70;99.90;;;;;;5038117;28;20025;-79
2021/05/12 03:18:04;;;;;;;10.02;2.33;;;11.70;99.90;;;;;;5037998;28;20032;-79
2021/05/12 03:20:30;;;;;;;4.05;1.95;;;11.70;99.90;;;;;;5038018;28;20052;-79
2021/05/12 03:22:57;;;;;;;8.07;2.67;;;11.70;99.90;;;;;;5055763;28;20047;-79
2021/05/12 03:25:23;;;;;;;7.75;2.33;;;11.70;99.90;;;;;;5055777;28;20151;-79
2021/05/12 03:27:50;;;;;;;6.72;2.65;;;11.80;99.90;;;;;;5055989;28;20025;-78
2021/05/12 03:30:28;;;;;;;4.38;2.15;;;11.70;99.90;;;;;;5037774;28;20031;-79
2021/05/12 03:32:56;;;;;;;8.10;2.65;;;11.80;99.90;;;;;;5055960;28;20104;-79
2021/05/12 03:35:23;;;;;;;7.53;2.80;;;11.80;99.90;;;;;;5036900;28;20179;-79
2021/05/12 03:37:48;;;;;;;5.43;2.42;;;11.70;99.90;;;;;;5055352;28;20480;-79
2021/05/12 03:40:15;;;;;;;9.02;2.70;;;11.70;99.90;;;;;;5055498;28;20039;-79
2021/05/12 03:42:41;;;;;;;4.60;2.45;;;11.80;99.90;;;;;;5055390;28;20100;-79
2021/05/12 03:45:09;;;;;;;11.55;3.17;;;11.80;99.90;;;;;;5037551;28;20025;-79
2021/05/12 03:47:35;;;;;;;5.80;2.80;;;11.80;99.90;;;;;;5055330;28;20464;-79
2021/05/12 03:50:01;;;;;;;6.55;2.78;;;11.80;99.90;;;;;;5055151;28;20056;-79
2021/05/12 03:52:27;;;;;;;5.75;3.17;;;11.80;99.90;;;;;;5055298;28;20056;-79
2021/05/12 03:54:53;;;;;;;11.25;3.50;;;11.70;99.90;;;;;;5037398;28;20048;-79
2021/05/12 03:57:19;;;;;;;6.70;3.22;;;11.70;99.90;;;;;;5055216;28;20551;-79
2021/05/12 03:59:45;;;;;;;6.18;3.65;;;11.70;99.90;;;;;;5020867;28;20075;-79
2021/05/12 04:02:10;;;;;;;7.30;3.25;;;11.60;99.90;;;;;;5037147;28;20473;-79
2021/05/12 04:04:36;;;;;;;5.43;2.88;;;11.60;99.90;;;;;;5054995;28;20025;-79
2021/05/12 04:07:02;;;;;;;8.52;4.10;;;11.50;99.90;;;;;;5037116;28;20028;-79
2021/05/12 04:09:29;;;;;;;11.82;4.28;;;11.40;99.90;;;;;;5037901;28;20060;-79
2021/05/12 04:11:54;;;;;;;13.70;5.03;;;11.40;99.90;;;;;;5054911;28;20440;-79
2021/05/12 04:14:20;;;;;;;13.15;4.25;;;11.50;99.90;;;;;;5054892;28;20056;-80
2021/05/12 04:16:51;;;;;;;9.20;4.40;;;11.40;99.90;;;;;;5037007;28;20032;-80
2021/05/12 04:19:17;;;;;;;12.00;4.70;;;11.40;99.90;;;;;;5036896;28;20032;-80
2021/05/12 04:21:42;;;;;;;9.32;4.47;;;11.40;99.90;;;;;;5036887;28;20025;-80
2021/05/12 04:24:08;;;;;;;8.65;4.35;;;11.40;99.90;;;;;;5036745;28;20033;-80
2021/05/12 04:26:34;;;;;;;8.60;4.10;;;11.30;99.90;;;;;;5055152;28;20146;-80
2021/05/12 04:28:59;;;;;;;6.85;4.32;;;11.30;99.90;;;;;;5054610;28;20021;-80
2021/05/12 04:31:26;;;;;;;9.10;3.90;;;11.20;99.90;;;;;;5036653;28;20032;-80
2021/05/12 04:33:52;;;;;;;7.63;3.60;;;11.10;99.90;;;;;;5054480;28;20104;-80
2021/05/12 04:36:17;;;;;;;10.20;4.22;;;11.10;99.90;;;;;;5036539;28;20063;-79
2021/05/12 04:38:43;;;;;;;7.43;3.45;;;11.00;99.90;;;;;;5054729;28;20059;-79
2021/05/12 04:41:09;;;;;;;6.05;3.90;;;10.90;99.90;;;;;;5054937;28;20025;-79
2021/05/12 04:43:34;;;;;;;8.80;3.25;;;10.90;99.90;;;;;;5054503;28;20361;-80
2021/05/12 04:46:02;;;;;;;6.75;3.10;;;11.00;99.90;;;;;;5054412;28;20021;-80
2021/05/12 04:48:28;;;;;;;5.88;2.95;;;11.00;99.90;;;;;;5036025;28;20074;-79
2021/05/12 04:50:54;;;;;;;4.10;2.53;;;11.00;99.90;;;;;;5036326;28;20025;-80
2021/05/12 04:53:20;;;;;;;6.07;3.00;;;10.90;99.90;;;;;;5036185;28;20087;-80
2021/05/12 04:55:45;;;;;;;5.95;3.15;;;11.00;99.90;;;;;;5036260;28;20029;-80
2021/05/12 04:58:11;;;;;;;4.88;2.65;;;11.10;99.90;;;;;;5054017;28;20533;-80
2021/05/12 05:00:37;;;;;;;9.00;2.90;;;11.20;99.90;;;;;;5036115;28;20025;-80
2021/05/12 05:03:06;;;;;;;6.00;2.85;;;11.30;99.90;;;;;;5054140;28;20025;-80
2021/05/12 05:05:31;;;;;;;4.50;2.20;;;11.30;99.90;;;;;;5053875;28;20021;-80
2021/05/12 05:07:57;;;;;;;4.32;2.55;;;11.40;99.90;;;;;;5036065;28;20021;-79
2021/05/12 05:10:23;;;;;;;4.07;2.38;;;11.40;99.90;;;;;;5054096;28;20549;-80
2021/05/12 05:12:49;;;;;;;7.03;2.60;;;11.40;99.90;;;;;;5035892;28;20025;-79
2021/05/12 05:15:16;;;;;;;4.70;2.78;;;11.40;99.90;;;;;;5035815;28;20032;-79
2021/05/12 05:17:42;;;;;;;7.75;2.33;;;11.40;99.90;;;;;;5053656;28;20091;-79
2021/05/12 05:20:11;;;;;;;5.57;2.60;;;11.30;99.90;;;;;;5035730;28;20021;-79
2021/05/12 05:22:37;;;;;;;11.10;2.20;;;11.30;99.90;;;;;;5053473;28;20480;-79
2021/05/12 05:25:03;;;;;;;5.00;2.72;;;11.30;99.90;;;;;;5035693;28;20068;-80
2021/05/12 05:27:29;;;;;;;6.53;2.22;;;11.30;99.90;;;;;;5035654;28;20071;-79
2021/05/12 05:29:54;;;;;;;5.15;2.58;;;11.30;99.90;;;;;;5053828;28;20403;-79
2021/05/12 05:32:21;;;;;;;7.43;3.22;;;11.30;99.90;;;;;;5035645;28;20025;-80
2021/05/12 05:34:48;;;;;;;8.15;2.97;;;11.40;99.90;;;;;;5035486;28;20035;-79
2021/05/12 05:37:14;;;;;;;11.68;2.60;;;11.30;99.90;;;;;;5053393;28;20063;-80
2021/05/12 05:39:40;;;;;;;4.93;2.38;;;11.40;99.90;;;;;;5053351;28;20025;-80
2021/05/12 05:42:10;;;;;;;4.25;2.28;;;11.40;99.90;;;;;;5035489;28;20029;-80
2021/05/12 05:44:38;;;;;;;9.70;2.80;;;11.30;99.90;;;;;;5035337;28;20497;-79
2021/05/12 05:47:04;;;;;;;6.65;2.30;;;11.30;99.90;;;;;;5053071;28;20112;-80
2021/05/12 05:49:29;;;;;;;9.60;2.20;;;11.30;99.90;;;;;;5035127;28;20128;-79
2021/05/12 05:51:55;;;;;;;7.55;2.20;;;11.40;99.90;;;;;;5053203;28;20032;-79
2021/05/12 05:54:22;;;;;;;6.60;2.28;;;11.40;99.90;;;;;;5053732;28;20112;-79
2021/05/12 05:56:48;;;;;;;6.55;2.00;;;11.40;99.90;;;;;;5053173;28;20152;-79
2021/05/12 05:59:14;;;;;;;5.55;2.20;;;11.40;99.90;;;;;;5034694;28;20033;-79
2021/05/12 06:01:40;;;;;;;6.47;2.63;;;11.40;99.90;;;;;;5053106;28;20021;-79
2021/05/12 06:04:07;;;;;;;5.47;2.42;;;11.40;99.90;;;;;;5035111;28;20021;-79
2021/05/12 06:06:33;;;;;;;9.48;2.60;;;11.40;99.90;;;;;;5035221;28;20021;-79
2021/05/12 06:08:59;;;;;;;2.88;2.20;;;11.30;99.90;;;;;;5035216;28;20496;-79
2021/05/12 06:11:24;;;;;;;4.53;2.50;;;11.40;99.90;;;;;;5035121;28;20032;-79
2021/05/12 06:13:50;;;;;;;6.10;2.10;;;11.40;99.90;;;;;;5053020;28;20025;-79
2021/05/12 06:16:17;;;;;;;7.80;2.83;;;11.50;99.90;;;;;;5052969;28;20025;-79
2021/05/12 06:18:44;;;;;;;6.10;2.80;;;11.40;99.90;;;;;;5035047;28;20029;-79
2021/05/12 06:21:12;;;;;;;6.20;2.45;;;11.20;99.90;;;;;;5035092;28;20028;-79
2021/05/12 06:23:39;;;;;;;4.90;2.60;;;11.00;99.90;;;;;;5053136;28;20045;-79
2021/05/12 06:26:13;;;;;;;5.32;2.63;;;11.00;99.90;;;;;;5035249;28;20090;-79
2021/05/12 06:28:40;;;;;;;8.85;2.50;;;11.20;99.90;;;;;;5035142;28;20032;-80
2021/05/12 06:31:07;;;;;;;7.35;2.38;;;11.10;99.90;;;;;;5052843;28;20518;-79
2021/05/12 06:33:33;;;;;;;8.82;2.50;;;11.20;99.90;;;;;;5035806;28;20376;-79
2021/05/12 06:35:59;;;;;;;6.78;2.33;;;11.10;99.90;;;;;;5053106;28;20021;-80
2021/05/12 06:38:25;;;;;;;7.32;2.50;;;11.10;99.90;;;;;;5034896;28;20025;-80
2021/05/12 06:40:51;;;;;;;5.47;2.63;;;11.00;99.90;;;;;;5052862;28;20048;-79
2021/05/12 06:43:17;;;;;;;5.82;2.00;;;11.10;99.90;;;;;;5034839;28;20056;-80
2021/05/12 06:45:42;;;;;;;7.50;2.42;;;11.20;99.90;;;;;;5034799;28;20060;-80
2021/05/12 06:48:08;;;;;;;6.15;2.72;;;11.00;99.90;;;;;;5034740;28;20079;-79
2021/05/12 06:50:34;;;;;;;7.75;2.80;;;11.20;99.90;;;;;;5052774;28;20037;-79
2021/05/12 06:53:00;;;;;;;5.35;2.40;;;11.20;99.90;;;;;;5034711;28;20025;-80
2021/05/12 06:55:26;;;;;;;8.02;2.85;;;11.20;99.90;;;;;;5034746;28;20476;-79
2021/05/12 06:57:52;;;;;;;7.45;2.08;;;11.30;99.90;;;;;;5034746;28;20033;-79
2021/05/12 07:00:19;;;;;;;6.93;2.28;;;11.30;99.90;;;;;;5034741;28;20500;-80
2021/05/12 07:02:45;;;;;;;8.05;2.78;;;11.30;99.90;;;;;;5052453;28;20369;-80
2021/05/12 07:05:15;;;;;;;6.55;2.33;;;11.30;99.90;;;;;;5034591;28;20573;-80
2021/05/12 07:07:43;;;;;;;6.07;2.40;;;11.40;99.90;;;;;;5052786;28;20104;-80
2021/05/12 07:10:10;;;;;;;4.57;2.13;;;11.40;99.90;;;;;;5034497;28;20029;-79
2021/05/12 07:12:36;;;;;;;5.45;2.00;;;11.40;99.90;;;;;;5055462;28;20024;-79
2021/05/12 07:15:07;;;;;;;3.45;1.90;;;11.60;99.90;;;;;;5055940;28;20487;-80
2021/05/12 07:17:33;;;;;;;5.78;1.88;;;11.60;99.90;;;;;;5055831;28;20025;-80
2021/05/12 07:19:59;;;;;;;2.80;1.73;;;11.60;99.90;;;;;;5037946;28;20032;-80
2021/05/12 07:22:25;;;;;;;5.07;1.60;;;11.60;99.90;;;;;;5037888;28;20024;-80
2021/05/12 07:24:51;;;;;;;5.40;1.80;;;11.60;99.90;;;;;;5055705;28;20025;-79
2021/05/12 07:27:17;;;;;;;7.95;2.38;;;11.60;99.90;;;;;;5037889;28;20108;-80
2021/05/12 07:29:43;;;;;;;3.92;1.90;;;11.60;99.90;;;;;;5037786;28;20114;-80
2021/05/12 07:32:09;;;;;;;5.25;1.80;;;11.70;99.90;;;;;;5055909;28;20021;-79
2021/05/12 07:34:35;;;;;;;3.92;1.58;;;11.90;99.90;;;;;;5037779;28;20550;-79
2021/05/12 07:37:00;;;;;;;3.40;1.80;;;12.00;99.90;;;;;;5037740;28;20058;-80
2021/05/12 07:39:29;;;;;;;7.22;1.70;;;11.90;99.90;;;;;;5037621;28;20056;-80
2021/05/12 07:41:57;;;;;;;4.90;1.92;;;12.00;99.90;;;;;;5037568;28;20025;-80
2021/05/12 07:44:23;;;;;;;4.20;1.88;;;12.00;99.90;;;;;;5037461;28;20523;-80
2021/05/12 07:46:50;;;;;;;4.95;1.55;;;12.00;99.90;;;;;;5037607;28;20054;-80
2021/05/12 07:49:16;;;;;;;6.15;1.75;;;11.90;99.90;;;;;;5037226;28;20124;-80
2021/05/12 07:51:42;;;;;;;3.03;1.80;;;11.70;99.90;;;;;;5055483;28;20059;-80
2021/05/12 07:54:07;;;;;;;7.45;1.88;;;11.70;99.90;;;;;;5037395;28;20021;-80
2021/05/12 07:56:33;;;;;;;5.18;1.48;;;11.70;99.90;;;;;;5055562;28;20032;-80
2021/05/12 07:58:59;;;;;;;3.40;1.50;;;11.80;99.90;;;;;;5037416;28;20031;-80
2021/05/12 08:01:29;;;;;;;3.58;1.58;;;11.80;99.90;;;;;;5055262;28;20154;-80
2021/05/12 08:03:55;;;;;;;9.05;1.70;;;11.90;99.90;;;;;;5055208;28;20480;-79
2021/05/12 08:06:21;;;;;;;7.63;2.25;;;11.90;99.90;;;;;;5055300;28;20028;-79
2021/05/12 08:08:46;;;;;;;3.30;1.50;;;12.00;99.90;;;;;;5037269;28;20025;-80
2021/05/12 08:11:12;;;;;;;6.68;1.70;;;12.00;99.90;;;;;;5037199;28;20028;-80
2021/05/12 08:13:38;;;;;;;3.20;1.42;;;12.20;99.90;;;;;;5037207;28;20040;-79
2021/05/12 08:16:04;;;;;;;5.45;1.60;;;12.20;99.90;;;;;;5037133;28;20035;-80
2021/05/12 08:18:30;;;;;;;5.72;1.67;;;12.20;99.90;;;;;;5037139;28;20111;-80
2021/05/12 08:20:57;;;;;;;4.63;1.60;;;12.30;99.90;;;;;;5037426;28;20075;-80
2021/05/12 08:23:23;;;;;;;9.80;1.85;;;12.40;99.90;;;;;;5036389;28;20036;-80
2021/05/12 08:25:50;;;;;;;5.10;1.80;;;12.30;99.90;;;;;;5036981;28;20021;-80
2021/05/12 08:28:16;;;;;;;7.35;1.83;;;12.40;99.90;;;;;;5054751;28;20028;-80
2021/05/12 08:30:46;;;;;;;7.32;1.70;;;12.40;99.90;;;;;;5036906;28;20361;-80
2021/05/12 08:33:14;;;;;;;4.35;1.55;;;12.40;99.90;;;;;;5054976;28;20094;-80
2021/05/12 08:35:42;;;;;;;3.63;1.98;;;12.50;99.90;;;;;;5036817;28;20393;-80
2021/05/12 08:38:09;;;;;;;5.72;1.80;;;12.60;99.90;;;;;;5036827;28;20394;-80
2021/05/12 08:40:36;;;;;;;5.75;1.50;;;12.60;99.90;;;;;;5036644;28;20369;-80
2021/05/12 08:43:03;;;;;;;4.60;1.48;;;12.60;99.90;;;;;;5054577;28;20108;-80
2021/05/12 08:45:30;;;;;;;6.43;1.80;;;12.70;99.90;;;;;;5054674;28;20431;-80
2021/05/12 08:47:56;;;;;;;7.82;1.75;;;12.70;99.90;;;;;;5036500;28;20048;-80
2021/05/12 08:50:24;;;;;;;5.57;1.63;;;12.70;99.90;;;;;;5054264;28;20040;-80
2021/05/12 08:52:51;;;;;;;5.68;1.55;;;12.60;99.90;;;;;;5020131;28;20082;-80
2021/05/12 08:55:18;;;;;;;7.60;2.00;;;12.50;99.90;;;;;;5054521;28;20024;-80
2021/05/12 08:57:44;;;;;;;7.43;1.67;;;12.50;99.90;;;;;;5036524;28;20029;-80
2021/05/12 09:00:10;;;;;;;7.45;1.83;;;12.60;99.90;;;;;;5036286;28;20025;-80
2021/05/12 09:02:37;;;;;;;7.60;1.60;;;12.80;99.90;;;;;;5053896;28;20028;-81
2021/05/12 09:05:07;;;;;;;6.88;1.83;;;12.80;99.90;;;;;;5053953;28;20416;-80
2021/05/12 09:07:34;;;;;;;9.43;2.30;;;13.00;99.90;;;;;;5036347;28;20025;-81
2021/05/12 09:10:00;;;;;;;5.90;1.40;;;13.00;99.90;;;;;;5036045;28;20025;-80
2021/05/12 09:12:40;;;;;;;7.30;1.98;;;13.00;99.90;;;;;;5036041;28;20408;-80
2021/05/12 09:15:07;;;;;;;5.07;1.85;;;13.00;99.90;;;;;;5054375;28;20064;-82
2021/05/12 09:17:41;;;;;;;4.50;1.98;;;13.10;99.90;;;;;;5053868;28;20416;-81
2021/05/12 09:20:19;;;;;;;6.28;1.65;;;13.00;99.90;;;;;;5035957;28;20098;-80
2021/05/12 09:22:48;;;;;;;3.97;1.48;;;13.10;99.90;;;;;;5035699;28;20029;-81
2021/05/12 09:25:17;;;;;;;8.30;1.83;;;13.10;99.90;;;;;;5035815;28;20033;-81
2021/05/12 09:27:51;;;;;;;7.20;1.88;;;13.20;99.90;;;;;;5053761;28;20025;-81
2021/05/12 09:30:22;;;;;;;4.73;1.30;;;13.30;99.90;;;;;;5035987;28;20057;-82
2021/05/12 09:32:48;;;;;;;4.70;1.52;;;13.40;99.90;;;;;;5035605;28;20472;-82
2021/05/12 09:35:15;;;;;;;2.25;1.30;;;13.10;99.90;;;;;;5035134;28;20031;-81
2021/05/12 09:37:43;;;;;;;4.30;1.75;;;12.90;99.90;;;;;;5035881;28;20032;-81
2021/05/12 09:40:21;;;;;;;4.07;1.42;;;12.90;99.90;;;;;;5053511;28;20032;-81
2021/05/12 09:42:59;;;;;;;9.48;1.95;;;12.90;99.90;;;;;;5035609;28;20535;-80
2021/05/12 09:45:28;;;;;;;3.30;1.30;;;13.00;99.90;;;;;;5035720;28;20420;-80
2021/05/12 09:47:59;;;;;;;6.80;1.80;;;13.10;99.90;;;;;;5035542;28;20128;-80
2021/05/12 09:50:40;;;;;;;5.90;1.50;;;13.10;99.90;;;;;;5053290;28;20044;-80
2021/05/12 09:53:12;;;;;;;6.10;1.35;;;13.10;99.90;;;;;;5035501;28;20392;-80
2021/05/12 09:55:46;;;;;;;6.28;1.75;;;13.10;99.90;;;;;;5035659;28;20507;-80
2021/05/12 09:58:18;;;;;;;6.22;1.88;;;13.00;99.90;;;;;;5035672;28;20552;-80
2021/05/12 10:00:45;;;;;;;5.60;1.77;;;13.00;99.90;;;;;;5035473;28;20029;-80
2021/05/12 10:03:13;;;;;;;5.53;1.70;;;13.10;99.90;;;;;;5053205;28;20028;-80
2021/05/12 10:05:58;;;;;;;3.97;1.33;;;13.00;99.90;;;;;;5035323;28;20029;-80
2021/05/12 10:08:28;;;;;;;7.20;1.58;;;13.10;99.90;;;;;;5035430;28;20021;-80
2021/05/12 10:10:58;;;;;;;5.53;1.50;;;13.10;99.90;;;;;;5035279;28;20017;-80
2021/05/12 10:13:25;;;;;;;8.40;1.58;;;13.00;99.90;;;;;;5035353;28;20476;-80
2021/05/12 10:15:51;;;;;;;4.20;1.30;;;12.90;99.90;;;;;;5035444;28;20063;-80
2021/05/12 10:18:17;;;;;;;7.28;1.70;;;12.80;99.90;;;;;;5035539;28;20057;-80
2021/05/12 10:20:43;;;;;;;6.25;1.58;;;13.00;99.90;;;;;;5035330;28;20037;-80
2021/05/12 10:23:09;;;;;;;6.03;1.30;;;13.00;99.90;;;;;;5053085;28;20021;-80
2021/05/12 10:25:39;;;;;;;7.00;1.55;;;13.00;99.90;;;;;;5035275;28;20032;-80
2021/05/12 10:28:07;;;;;;;6.55;1.35;;;13.00;99.90;;;;;;5053059;28;20025;-79
2021/05/12 10:30:33;;;;;;;5.55;1.67;;;13.10;99.90;;;;;;5035121;28;20025;-80
2021/05/12 10:32:59;;;;;;;5.75;1.88;;;13.20;99.90;;;;;;5053031;28;20059;-80
2021/05/12 10:35:33;;;;;;;9.02;1.50;;;13.40;99.90;;;;;;5035133;28;20391;-80
2021/05/12 10:38:00;;;;;;;5.47;1.55;;;13.40;99.90;;;;;;5035102;28;20476;-80
2021/05/12 10:40:39;;;;;;;7.50;1.55;;;13.30;99.90;;;;;;5035064;28;20033;-80
2021/05/12 10:45:52;;;;;;;7.00;1.63;;;13.50;99.90;;;;;;5054706;28;20032;-80
2021/05/12 10:48:44;;;;;;;6.70;1.90;;;13.50;99.90;;;;;;5056502;28;20013;-80
2021/05/12 10:51:23;;;;;;;4.05;1.30;;;13.50;99.90;;;;;;5038737;28;20020;-80
2021/05/12 10:53:52;;;;;;;5.28;1.45;;;13.60;99.90;;;;;;5038764;28;20170;-81
2021/05/12 10:56:20;;;;;;;8.43;1.45;;;13.80;99.90;;;;;;5038782;28;20566;-80
2021/05/12 10:58:46;;;;;;;2.45;1.10;;;13.90;99.90;;;;;;5038552;28;20033;-81
2021/05/12 11:01:12;;;;;;;7.88;1.40;;;14.10;99.90;;;;;;5038619;28;20025;-81
2021/05/12 11:03:50;;;;;;;6.30;1.25;;;14.10;99.90;;;;;;5038472;28;20476;-81
2021/05/12 11:06:20;;;;;;;6.95;1.60;;;14.10;99.90;;;;;;5038593;28;20498;-81
2021/05/12 11:09:12;;;;;;;7.78;1.48;;;14.20;99.90;;;;;;5056584;28;20431;-81
2021/05/12 11:11:44;;;;;;;8.25;1.55;;;14.30;99.90;;;;;;5056934;28;20358;-81
2021/05/12 11:14:32;;;;;;;7.82;1.65;;;14.30;99.90;;;;;;5038371;28;20392;-81
2021/05/12 11:17:18;;;;;;;9.82;1.85;;;14.20;99.90;;;;;;5038481;28;20025;-81
2021/05/12 11:19:56;;;;;;;6.07;1.50;;;14.20;99.90;;;;;;5038321;28;20029;-81
2021/05/12 11:24:58;;;;;;;10.57;2.20;;;14.40;99.90;;;;;;5056462;28;20029;-81
2021/05/12 11:32:35;;;;;;;5.22;1.67;;;14.20;99.90;;;;;;5055866;28;20021;-81
2021/05/12 11:35:05;;;;;;;6.38;1.35;;;14.20;99.90;;;;;;5037878;28;20025;-81
2021/05/12 11:37:34;;;;;;;8.60;1.70;;;14.30;99.90;;;;;;5056212;28;20535;-82
2021/05/12 11:40:00;;;;;;;4.43;1.60;;;14.20;99.90;;;;;;5056311;28;20025;-81
2021/05/12 11:42:31;;;;;;;7.85;1.95;;;14.20;99.90;;;;;;5037779;28;20392;-81
2021/05/12 11:45:22;;;;;;;6.15;1.60;;;14.30;99.90;;;;;;5055692;28;20447;-82
2021/05/12 11:47:58;;;;;;;8.20;1.92;;;14.30;99.90;;;;;;5055836;28;20021;-82
2021/05/12 11:50:26;;;;;;;7.55;1.90;;;14.40;99.90;;;;;;5037671;28;20141;-82
2021/05/12 11:52:53;;;;;;;6.13;1.23;;;14.50;99.90;;;;;;5037633;28;20112;-82
2021/05/12 11:55:23;;;;;;;8.65;1.73;;;14.50;99.90;;;;;;5037678;28;20025;-81
2021/05/12 11:57:51;;;;;;;8.95;1.80;;;14.40;99.90;;;;;;5054928;28;20022;-81
2021/05/12 12:00:20;;;;;;;5.65;1.40;;;14.40;99.90;;;;;;5037524;28;20025;-82
2021/05/12 12:03:01;;;;;;;10.32;1.65;;;14.30;99.90;;;;;;5037308;28;20021;-82
2021/05/12 12:05:37;;;;;;;6.75;1.65;;;14.10;99.90;;;;;;5037541;28;20028;-82
2021/05/12 12:08:11;;;;;;;7.40;1.70;;;14.00;99.90;;;;;;5055291;28;20376;-82
2021/05/12 12:10:36;;;;;;;9.13;1.60;;;14.00;99.90;;;;;;5037254;28;20021;-81
2021/05/12 12:13:02;;;;;;;6.95;1.60;;;14.10;99.90;;;;;;5037576;28;20476;-82
2021/05/12 12:15:28;;;;;;;3.70;1.40;;;14.00;99.90;;;;;;5037258;28;20438;-82
2021/05/12 12:17:54;;;;;;;4.28;1.50;;;14.00;99.90;;;;;;5037075;28;20040;-82
2021/05/12 12:20:30;;;;;;;8.30;1.50;;;14.10;99.90;;;;;;5037847;28;20029;-82
2021/05/12 12:22:57;;;;;;;6.78;1.60;;;14.00;99.90;;;;;;5037090;28;20082;-82
2021/05/12 12:25:29;;;;;;;6.80;1.60;;;14.00;99.90;;;;;;5037157;28;20021;-82
2021/05/12 12:27:56;;;;;;;5.97;1.40;;;13.90;99.90;;;;;;5037141;28;20048;-82
2021/05/12 12:30:22;;;;;;;5.13;1.65;;;13.90;99.90;;;;;;5037156;28;20032;-82
2021/05/12 12:32:47;;;;;;;6.40;1.50;;;13.90;99.90;;;;;;5036845;28;20021;-82
2021/05/12 12:35:13;;;;;;;10.00;1.75;;;13.90;99.90;;;;;;5036982;28;20020;-82
2021/05/12 12:37:42;;;;;;;7.95;1.35;;;14.00;99.90;;;;;;5054743;28;20061;-82
2021/05/12 12:40:12;;;;;;;6.70;1.25;;;14.00;99.90;;;;;;5054662;28;20025;-82
2021/05/12 12:42:48;;;;;;;7.38;1.20;;;14.00;99.90;;;;;;5036758;28;20025;-82
2021/05/12 12:45:21;;;;;;;4.55;1.27;;;14.10;99.90;;;;;;5054668;28;20112;-82
2021/05/12 12:47:52;;;;;;;5.03;1.60;;;14.00;99.90;;;;;;5054323;28;20049;-82
2021/05/12 12:50:18;;;;;;;7.18;1.42;;;14.20;99.90;;;;;;5036467;28;20412;-82
2021/05/12 12:52:44;;;;;;;4.35;1.27;;;14.20;99.90;;;;;;5054947;28;20021;-81
2021/05/12 12:55:24;;;;;;;5.18;1.30;;;14.20;99.90;;;;;;5036490;28;20032;-81
2021/05/12 12:58:03;;;;;;;4.57;1.60;;;14.30;99.90;;;;;;5054281;28;20053;-81
2021/05/12 13:00:35;;;;;;;5.50;1.30;;;14.30;99.90;;;;;;5036404;28;20025;-82